Time;durP1;ratioP1;P1;durP2;ratioP2;P2;SDS_P1;SDS_P2;PMS_P1;PMS_P2;Temp;Humidity;BMP_temperature;BMP_pressure;BME280_temperature;BME280_humidity;BME280_pressure;Samples;Min_cycle;Max_cycle;Signal;HPM_P1;HPM_P2
2022/06/18 00:00:20;;;;;;;;;14.67;12.33;;;;;28.86;35.30;101455.75;5038132;28;45555;-70
2022/06/18 00:02:46;;;;;;;;;11.00;11.00;;;;;29.11;36.06;101492.81;5037700;28;45389;-70
2022/06/18 00:05:15;;;;;;;;;16.00;15.25;;;;;29.09;35.38;101492.03;5038048;28;45329;-70
2022/06/18 00:07:49;;;;;;;;;12.67;12.67;;;;;29.07;35.95;101480.47;5038140;28;45337;-71
2022/06/18 00:10:19;;;;;;;;;12.00;12.00;;;;;29.01;35.99;101480.84;5037610;28;46072;-70
2022/06/18 00:15:32;;;;;;;;;14.00;13.67;;;;;28.92;35.97;101482.31;5037579;28;45488;-70
2022/06/18 00:17:58;;;;;;;;;15.75;15.00;;;;;28.91;35.93;101480.59;5037707;28;45462;-70
2022/06/18 00:20:27;;;;;;;;;13.33;13.33;;;;;28.84;36.24;101480.09;5034487;28;46008;-72
2022/06/18 00:22:55;;;;;;;;;13.50;12.00;;;;;28.75;36.27;101467.19;5027348;28;45299;-71
2022/06/18 00:25:23;;;;;;;;;12.50;12.50;;;;;28.74;36.31;101478.97;5037529;28;45744;-69
2022/06/18 00:27:49;;;;;;;;;14.00;14.00;;;;;28.60;36.12;101452.00;5037788;28;45225;-70
2022/06/18 00:30:18;;;;;;;;;14.00;14.00;;;;;28.51;36.12;101439.97;5036923;28;46749;-72
2022/06/18 00:32:44;;;;;;;;;13.25;12.00;;;;;28.67;36.40;101466.81;5037271;28;45916;-71
2022/06/18 00:35:11;;;;;;;;;14.00;14.00;;;;;28.55;36.48;101460.38;5037682;28;45301;-71
2022/06/18 00:37:38;;;;;;;;;17.33;15.33;;;;;28.42;36.63;101445.88;5037308;28;45649;-72
2022/06/18 00:40:23;;;;;;;;;13.00;13.00;;;;;28.51;36.53;101464.22;5036717;28;46633;-70
2022/06/18 00:42:50;;;;;;;;;16.00;15.00;;;;;28.46;36.57;101463.63;5036868;28;45342;-70
2022/06/18 00:45:25;;;;;;;;;14.00;12.33;;;;;28.46;36.59;101459.09;5028365;27;45376;-70
2022/06/18 00:48:01;;;;;;;;;13.00;13.00;;;;;28.41;36.66;101454.94;5037315;28;45476;-71
2022/06/18 00:50:39;;;;;;;;;13.00;13.00;;;;;28.51;36.52;101469.59;5039674;27;47818;-70
2022/06/18 00:53:11;;;;;;;;;13.50;13.50;;;;;28.22;36.69;101433.66;5036765;28;45553;-72
2022/06/18 00:55:56;;;;;;;;;15.00;12.67;;;;;28.15;36.42;101433.16;5023997;28;45595;-70
2022/06/18 00:58:37;;;;;;;;;11.67;11.67;;;;;28.43;37.50;101478.13;5037030;28;45776;-70
2022/06/18 01:01:12;;;;;;;;;12.67;12.00;;;;;28.22;37.05;101449.81;5036729;28;45432;-72
2022/06/18 01:03:38;;;;;;;;;13.67;12.67;;;;;28.19;37.16;101461.66;5022130;28;45400;-71
2022/06/18 01:06:22;;;;;;;;;12.67;11.33;;;;;28.28;37.22;101474.53;5036926;28;45499;-71
2022/06/18 01:08:58;;;;;;;;;12.33;12.33;;;;;28.13;37.19;101457.47;5037301;28;45218;-74
2022/06/18 01:11:30;;;;;;;;;14.00;12.00;;;;;28.25;37.43;101476.56;5036876;28;46067;-71
2022/06/18 01:13:57;;;;;;;;;10.25;10.00;;;;;28.18;37.54;101481.44;5036452;28;45307;-70
2022/06/18 01:16:25;;;;;;;;;13.33;13.33;;;;;28.13;37.61;101472.78;5036703;28;45482;-68
2022/06/18 01:18:52;;;;;;;;;14.00;13.00;;;;;28.12;37.85;101471.91;5035405;28;45381;-69
2022/06/18 01:21:38;;;;;;;;;13.33;12.00;;;;;28.09;37.77;101468.53;5023859;28;46640;-69
2022/06/18 01:24:22;;;;;;;;;13.67;13.67;;;;;28.04;38.23;101476.03;5036306;28;45396;-72
2022/06/18 01:26:53;;;;;;;;;14.00;14.00;;;;;27.97;38.06;101472.81;5036564;28;45301;-71
2022/06/18 01:29:20;;;;;;;;;13.00;13.00;;;;;27.86;38.55;101446.56;5035480;28;45275;-70
2022/06/18 01:31:47;;;;;;;;;13.00;12.67;;;;;27.95;38.56;101463.97;5036491;28;45540;-71
2022/06/18 01:34:15;;;;;;;;;18.67;14.67;;;;;27.82;38.60;101446.78;5036193;28;45443;-73
2022/06/18 01:36:41;;;;;;;;;15.33;14.00;;;;;27.91;38.78;101462.44;5036258;28;45573;-76
2022/06/18 01:39:21;;;;;;;;;15.33;15.00;;;;;27.81;38.71;101454.00;5036387;28;45346;-74
2022/06/18 01:41:50;;;;;;;;;13.67;13.00;;;;;27.69;39.07;101439.44;5036702;28;46653;-69
2022/06/18 01:44:50;;;;;;;;;13.67;13.33;;;;;27.79;38.88;101447.84;5023494;28;45573;-69
2022/06/18 01:47:29;;;;;;;;;13.00;13.00;;;;;27.70;39.09;101441.16;5036221;28;45421;-73
2022/06/18 01:50:35;;;;;;;;;12.67;11.00;;;;;27.83;39.17;101459.31;5037210;28;45436;-73
2022/06/18 01:53:24;;;;;;;;;14.00;14.00;;;;;27.83;39.37;101453.94;5025708;28;46064;-69
2022/06/18 01:56:06;;;;;;;;;16.00;15.00;;;;;27.72;40.07;101440.22;5027169;28;45319;-71
2022/06/18 01:58:40;;;;;;;;;14.33;14.00;;;;;27.73;39.81;101448.19;5036485;28;45472;-76
2022/06/18 02:01:14;;;;;;;;;13.33;11.33;;;;;27.50;40.03;101411.84;5036911;28;45296;-74
2022/06/18 02:03:40;;;;;;;;;13.67;13.33;;;;;27.59;40.21;101426.59;5036171;28;45344;-76
2022/06/18 02:06:08;;;;;;;;;13.00;13.00;;;;;27.64;40.44;101438.81;5036205;28;45785;-73
2022/06/18 02:08:34;;;;;;;;;13.33;13.33;;;;;27.46;40.78;101424.63;5036172;28;45326;-75
2022/06/18 02:11:06;;;;;;;;;15.33;15.33;;;;;27.40;40.56;101421.44;5036301;28;45278;-73
2022/06/18 02:13:45;;;;;;;;;17.33;17.00;;;;;27.32;40.79;101418.34;5026694;28;46328;-73
2022/06/18 02:16:16;;;;;;;;;15.00;14.33;;;;;27.43;41.19;101434.69;5039552;28;45511;-72
2022/06/18 02:18:45;;;;;;;;;16.00;14.00;;;;;27.37;41.23;101441.31;5039643;28;45394;-74
2022/06/18 02:21:14;;;;;;;;;14.00;14.00;;;;;27.30;41.33;101429.16;5039963;28;45440;-76
2022/06/18 02:23:39;;;;;;;;;16.00;14.00;;;;;27.24;41.42;101422.31;5039251;28;45477;-76
2022/06/18 02:26:07;;;;;;;;;14.00;12.67;;;;;27.22;41.51;101421.53;5038149;28;45507;-77
2022/06/18 02:28:39;;;;;;;;;13.67;13.67;;;;;27.14;41.96;101428.28;5039508;28;45487;-76
2022/06/18 02:31:05;;;;;;;;;16.00;15.33;;;;;27.01;42.25;101402.09;5039791;28;45442;-77
2022/06/18 02:33:42;;;;;;;;;15.67;14.33;;;;;27.07;42.39;101422.38;5039058;28;45946;-76
2022/06/18 02:36:18;;;;;;;;;16.00;16.00;;;;;27.03;42.66;101427.06;5039636;28;45475;-73
2022/06/18 02:38:46;;;;;;;;;16.33;16.33;;;;;26.95;42.72;101413.16;5039029;28;45251;-70
2022/06/18 02:41:11;;;;;;;;;18.67;15.67;;;;;26.87;43.08;101407.38;5039523;28;45333;-71
2022/06/18 02:43:40;;;;;;;;;17.33;15.67;;;;;26.81;43.04;101413.06;5037861;27;46672;-73
2022/06/18 02:46:06;;;;;;;;;21.00;17.33;;;;;26.72;43.53;101389.38;5038768;27;45457;-70
2022/06/18 02:48:34;;;;;;;;;16.00;16.00;;;;;26.71;43.66;101401.09;5030003;28;45393;-73
2022/06/18 02:51:00;;;;;;;;;19.33;18.00;;;;;26.61;43.92;101406.97;5039682;28;45382;-70
2022/06/18 02:53:27;;;;;;;;;16.00;16.00;;;;;26.47;44.18;101388.03;5034484;28;46176;-70
2022/06/18 02:55:56;;;;;;;;;20.00;20.00;;;;;26.51;44.59;101397.66;5028727;28;45560;-70
2022/06/18 02:58:26;;;;;;;;;20.67;19.67;;;;;26.51;44.78;101394.97;5039138;28;45369;-70
2022/06/18 03:01:00;;;;;;;;;16.33;16.00;;;;;26.43;44.66;101389.13;5039491;28;45438;-71
2022/06/18 03:03:32;;;;;;;;;19.00;15.00;;;;;26.54;44.26;101383.22;5038533;28;45605;-71
2022/06/18 03:05:58;;;;;;;;;13.33;12.67;;;;;26.31;44.29;101336.97;5038871;28;45441;-73
2022/06/18 03:08:26;;;;;;;;;17.33;15.33;;;;;26.54;44.24;101380.53;5038897;28;45396;-71
2022/06/18 03:13:37;;;;;;;;;16.67;16.33;;;;;26.60;44.10;101375.72;5040473;28;45839;-70
2022/06/18 03:16:06;;;;;;;;;15.67;15.33;;;;;26.51;44.33;101359.19;5039482;28;45433;-69
2022/06/18 03:18:32;;;;;;;;;17.33;17.00;;;;;26.61;44.02;101366.69;5043199;28;45592;-70
2022/06/18 03:21:16;;;;;;;;;16.33;16.33;;;;;26.61;44.10;101357.75;5040810;28;45519;-70
2022/06/18 03:23:44;;;;;;;;;17.33;17.33;;;;;26.55;44.15;101347.34;5041554;27;46418;-71
2022/06/18 03:26:10;;;;;;;;;12.00;12.00;;;;;26.44;44.37;101340.72;5040222;28;45287;-70
2022/06/18 03:28:35;;;;;;;;;16.33;15.33;;;;;26.47;44.54;101352.25;5042970;28;45544;-70
2022/06/18 03:31:01;;;;;;;;;18.67;15.00;;;;;26.35;45.00;101337.69;5040973;28;45388;-69
2022/06/18 03:33:27;;;;;;;;;17.33;16.33;;;;;26.34;44.61;101354.72;5039421;28;47612;-68
2022/06/18 03:35:53;;;;;;;;;17.33;16.00;;;;;26.28;44.67;101350.56;5037312;28;45257;-69
2022/06/18 03:38:19;;;;;;;;;18.67;17.00;;;;;26.23;45.52;101347.25;5040705;28;45540;-69
2022/06/18 03:40:51;;;;;;;;;18.00;16.67;;;;;26.15;45.43;101347.69;5041724;28;46003;-69
2022/06/18 03:43:22;;;;;;;;;17.33;17.33;;;;;26.04;45.48;101341.16;5040182;28;45524;-69
2022/06/18 03:45:51;;;;;;;;;17.67;16.00;;;;;25.89;45.71;101318.66;5042596;28;45567;-69
2022/06/18 03:48:26;;;;;;;;;17.33;17.33;;;;;25.98;45.29;101328.91;5039590;28;45489;-69
2022/06/18 03:50:51;;;;;;;;;18.67;14.67;;;;;25.95;45.23;101324.56;5041604;28;45515;-70
2022/06/18 03:53:17;;;;;;;;;14.00;12.67;;;;;25.78;45.57;101306.66;5036319;28;45620;-69
2022/06/18 03:55:43;;;;;;;;;21.67;16.67;;;;;25.97;45.48;101329.88;5027525;28;45729;-70
2022/06/18 03:58:10;;;;;;;;;14.00;14.00;;;;;26.06;45.61;101328.53;5037972;28;45400;-72
2022/06/18 04:00:36;;;;;;;;;14.00;14.00;;;;;26.09;45.78;101337.25;5038081;28;45413;-71
2022/06/18 04:03:02;;;;;;;;;18.33;16.67;;;;;26.10;45.27;101335.44;5037684;28;45517;-67
2022/06/18 04:05:28;;;;;;;;;15.00;15.00;;;;;26.06;45.35;101325.84;5037463;28;45513;-69
2022/06/18 04:07:54;;;;;;;;;15.33;15.33;;;;;26.17;44.98;101339.53;5036746;28;45409;-69
2022/06/18 04:10:21;;;;;;;;;15.67;13.00;;;;;26.21;45.46;101333.91;5037620;28;45152;-69
2022/06/18 04:12:48;;;;;;;;;15.00;15.00;;;;;26.20;45.27;101331.34;5034426;28;45867;-71
2022/06/18 04:15:15;;;;;;;;;18.33;17.00;;;;;26.10;45.31;101314.84;5033231;28;45408;-69
2022/06/18 04:17:48;;;;;;;;;16.67;14.67;;;;;26.18;45.68;101328.72;5038967;27;45480;-72
2022/06/18 04:20:22;;;;;;;;;15.33;15.33;;;;;26.01;46.10;101307.28;5036481;27;46631;-71
2022/06/18 04:22:50;;;;;;;;;18.67;17.00;;;;;26.07;46.14;101332.94;5040859;28;46255;-69
2022/06/18 04:25:16;;;;;;;;;16.67;16.67;;;;;26.07;45.85;101336.47;5048567;28;45388;-69
2022/06/18 04:27:45;;;;;;;;;17.67;15.67;;;;;26.10;46.33;101330.97;5037643;28;45437;-70
2022/06/18 04:30:12;;;;;;;;;19.00;17.00;;;;;25.87;46.00;101293.75;5046594;28;45512;-69
2022/06/18 04:32:38;;;;;;;;;15.33;15.33;;;;;26.10;46.17;101322.91;5048604;28;46327;-70
2022/06/18 04:35:06;;;;;;;;;18.67;17.33;;;;;26.08;46.12;101329.28;5055978;27;45502;-69
2022/06/18 04:37:32;;;;;;;;;16.33;16.33;;;;;25.79;46.40;101272.63;5054191;28;45432;-69
2022/06/18 04:39:58;;;;;;;;;15.33;15.33;;;;;25.99;46.38;101317.25;5057258;28;45433;-70
2022/06/18 04:42:25;;;;;;;;;19.00;17.33;;;;;25.98;46.56;101315.50;5054194;27;46979;-68
2022/06/18 04:44:51;;;;;;;;;17.00;16.33;;;;;26.00;46.54;101319.81;5054938;27;45440;-69
2022/06/18 04:47:17;;;;;;;;;15.33;14.67;;;;;25.90;46.38;101320.41;5050914;28;45582;-70
2022/06/18 04:49:43;;;;;;;;;17.00;17.00;;;;;25.87;46.83;101331.31;5036304;28;45480;-70
2022/06/18 04:52:08;;;;;;;;;14.33;14.33;;;;;25.81;46.67;101308.31;5048546;28;46144;-69
2022/06/18 04:54:34;;;;;;;;;16.00;15.00;;;;;26.00;46.15;101335.94;5027090;28;45368;-70
2022/06/18 04:57:00;;;;;;;;;14.33;14.33;;;;;26.09;46.13;101342.63;5035307;28;45381;-70
2022/06/18 04:59:25;;;;;;;;;16.00;15.00;;;;;26.05;46.53;101329.44;5036803;28;45410;-71
2022/06/18 05:02:03;;;;;;;;;14.67;13.67;;;;;26.16;46.08;101341.34;5036754;28;46034;-72
2022/06/18 05:04:29;;;;;;;;;14.33;14.33;;;;;26.14;45.97;101340.56;5037011;28;45307;-68
2022/06/18 05:06:55;;;;;;;;;17.33;15.67;;;;;26.10;46.20;101332.75;5035750;28;45402;-73
2022/06/18 05:09:20;;;;;;;;;18.33;17.00;;;;;26.10;45.99;101335.44;5032897;28;45244;-71
2022/06/18 05:11:46;;;;;;;;;14.33;12.67;;;;;26.08;46.08;101319.44;5037856;28;46429;-69
2022/06/18 05:14:14;;;;;;;;;15.00;15.00;;;;;26.19;45.75;101332.25;5037167;28;45602;-70
2022/06/18 05:16:40;;;;;;;;;15.67;15.67;;;;;26.18;45.88;101320.66;5036014;28;45480;-71
2022/06/18 05:19:11;;;;;;;;;18.33;18.00;;;;;26.26;45.24;101328.28;5036530;28;45342;-70
2022/06/18 05:21:37;;;;;;;;;13.33;11.67;;;;;26.33;45.20;101336.88;5035862;28;45552;-69
2022/06/18 05:24:02;;;;;;;;;17.00;16.33;;;;;26.35;45.60;101333.16;5035776;28;45266;-68
2022/06/18 05:26:28;;;;;;;;;16.33;16.00;;;;;26.20;45.40;101296.44;5033007;27;45660;-68
2022/06/18 05:28:54;;;;;;;;;19.00;16.67;;;;;26.42;45.22;101325.66;5031362;28;45698;-68
2022/06/18 05:31:19;;;;;;;;;16.33;15.00;;;;;26.35;44.95;101319.75;5053050;28;45538;-70
2022/06/18 05:33:45;;;;;;;;;15.33;15.00;;;;;26.41;45.11;101321.22;5052885;28;45433;-72
2022/06/18 05:36:19;;;;;;;;;16.00;16.00;;;;;26.44;45.13;101313.88;5052682;28;45572;-72
2022/06/18 05:38:46;;;;;;;;;21.00;18.00;;;;;26.38;44.74;101310.63;5052281;27;45561;-69
2022/06/18 05:41:12;;;;;;;;;17.33;16.00;;;;;26.34;44.90;101320.72;5039145;28;46822;-72
2022/06/18 05:43:37;;;;;;;;;15.67;14.00;;;;;26.32;44.96;101317.22;5028716;28;45495;-73
2022/06/18 05:46:03;;;;;;;;;16.67;14.00;;;;;26.19;45.61;101290.16;5039900;28;45481;-70
2022/06/18 05:48:28;;;;;;;;;17.33;16.67;;;;;26.38;45.29;101310.63;5045712;28;45398;-69
2022/06/18 05:50:54;;;;;;;;;17.67;17.33;;;;;26.43;45.13;101305.88;5040188;28;45546;-70
2022/06/18 05:53:19;;;;;;;;;21.00;19.00;;;;;26.38;45.30;101310.63;5037003;28;45432;-70
2022/06/18 05:55:45;;;;;;;;;20.00;18.33;;;;;26.36;45.40;101307.16;5031086;28;45373;-69
2022/06/18 05:58:11;;;;;;;;;15.33;15.33;;;;;26.42;45.17;101306.84;5039028;28;45495;-69
2022/06/18 06:00:37;;;;;;;;;19.50;18.50;;;;;26.27;45.42;101265.59;5038414;28;46504;-69
2022/06/18 06:03:02;;;;;;;;;17.33;16.67;;;;;26.56;44.78;101298.91;5039177;28;45422;-68
2022/06/18 06:05:28;;;;;;;;;15.00;15.00;;;;;26.72;44.82;101301.63;5039022;28;45489;-68
2022/06/18 06:07:54;;;;;;;;;15.67;15.67;;;;;26.77;44.40;101295.97;5033285;28;45429;-69
2022/06/18 06:13:19;;;;;;;;;15.67;15.67;;;;;26.94;43.66;101290.50;5032854;28;45661;-69
2022/06/18 06:15:45;;;;;;;;;17.33;16.33;;;;;26.92;43.11;101256.59;5043149;28;45698;-73
2022/06/18 06:18:15;;;;;;;;;16.67;16.67;;;;;27.07;43.14;101286.16;5046655;28;45557;-69
2022/06/18 06:20:46;;;;;;;;;14.33;14.33;;;;;27.16;43.32;101283.84;5044317;27;45806;-70
2022/06/18 06:23:13;;;;;;;;;17.33;15.67;;;;;27.08;43.04;101254.75;5037433;28;45579;-69
2022/06/18 06:25:41;;;;;;;;;19.33;18.00;;;;;27.28;42.62;101275.94;5040355;28;45501;-69
2022/06/18 06:28:09;;;;;;;;;17.67;17.67;;;;;27.17;42.40;101253.31;5025749;28;45595;-72
2022/06/18 06:30:40;;;;;;;;;19.00;16.67;;;;;27.30;42.47;101278.56;5025165;28;45982;-70
2022/06/18 06:33:06;;;;;;;;;15.33;15.33;;;;;27.19;43.01;101273.84;5042126;28;45505;-71
2022/06/18 06:35:33;;;;;;;;;18.00;17.33;;;;;27.34;42.61;101284.63;5023699;28;45481;-70
2022/06/18 06:37:59;;;;;;;;;16.00;16.00;;;;;27.50;42.25;101277.34;5028179;28;45934;-70
2022/06/18 06:40:24;;;;;;;;;12.00;11.33;;;;;27.58;42.08;101268.84;5040860;28;46137;-71
2022/06/18 06:42:53;;;;;;;;;13.33;13.00;;;;;27.68;41.72;101265.47;5040165;28;45420;-70
2022/06/18 06:45:22;;;;;;;;;14.00;14.00;;;;;27.83;41.36;101268.19;5040271;28;45978;-70
2022/06/18 06:47:48;;;;;;;;;16.33;15.00;;;;;27.96;40.99;101279.94;5040488;27;45495;-68
2022/06/18 06:50:16;;;;;;;;;20.67;18.00;;;;;27.87;40.63;101250.91;5034270;28;45500;-69
2022/06/18 06:52:43;;;;;;;;;19.33;18.67;;;;;28.03;40.61;101273.22;5032087;28;45559;-70
2022/06/18 06:58:16;;;;;;;;;15.33;15.33;;;;;28.19;40.57;101274.91;5039191;28;45412;-70
2022/06/18 07:00:47;;;;;;;;;16.00;16.00;;;;;28.37;40.25;101289.06;5036947;28;46066;-70
2022/06/18 07:03:20;;;;;;;;;15.00;15.00;;;;;28.51;40.28;101291.75;5036678;28;45476;-70
2022/06/18 07:05:46;;;;;;;;;17.33;16.00;;;;;28.60;39.49;101296.56;5053790;28;45448;-71
2022/06/18 07:08:12;;;;;;;;;14.00;14.00;;;;;28.62;39.34;101294.63;5054826;27;46113;-71
2022/06/18 07:10:39;;;;;;;;;17.33;15.67;;;;;28.65;39.18;101291.72;5053749;28;45483;-71
2022/06/18 07:13:04;;;;;;;;;16.00;15.33;;;;;28.69;39.35;101293.25;5056926;28;45409;-71
2022/06/18 07:15:34;;;;;;;;;16.67;16.33;;;;;28.77;38.80;101299.97;5045594;28;45851;-69
2022/06/18 07:18:02;;;;;;;;;15.00;13.67;;;;;28.85;38.73;101287.72;5039748;28;45496;-70
2022/06/18 07:20:35;;;;;;;;;20.33;18.00;;;;;28.91;38.99;101286.44;5042236;28;45948;-73
2022/06/18 07:23:01;;;;;;;;;16.00;14.00;;;;;28.99;38.88;101283.25;5041088;27;45220;-72
2022/06/18 07:25:30;;;;;;;;;18.67;15.33;;;;;28.97;38.52;101283.31;5037594;28;45564;-69
2022/06/18 07:28:10;;;;;;;;;17.00;16.33;;;;;29.04;38.62;101278.41;5039825;28;45271;-70
2022/06/18 07:30:47;;;;;;;;;16.67;16.67;;;;;29.07;38.26;101272.81;5031941;28;48211;-73
2022/06/18 07:33:36;;;;;;;;;16.00;13.67;;;;;29.16;38.39;101283.00;5047740;28;45436;-73
2022/06/18 07:36:06;;;;;;;;;14.33;13.00;;;;;29.13;37.96;101257.09;5026294;28;46101;-70
2022/06/18 07:38:32;;;;;;;;;19.67;16.00;;;;;29.18;37.90;101263.03;5049614;27;45574;-72
2022/06/18 07:40:58;;;;;;;;;15.33;14.00;;;;;29.16;37.91;101247.94;5052916;27;45762;-71
2022/06/18 07:43:35;;;;;;;;;17.33;15.67;;;;;29.28;37.54;101263.31;5049914;28;45618;-70
2022/06/18 07:46:06;;;;;;;;;14.33;14.33;;;;;29.32;37.17;101262.09;5045416;27;45491;-70
2022/06/18 07:48:33;;;;;;;;;18.00;16.00;;;;;29.35;37.39;101253.81;5040317;28;46580;-70
2022/06/18 07:50:59;;;;;;;;;18.00;18.00;;;;;29.48;37.31;101259.22;5047547;28;45451;-70
2022/06/18 07:53:26;;;;;;;;;18.00;16.33;;;;;29.64;36.91;101260.81;5040277;28;45445;-70
2022/06/18 07:55:54;;;;;;;;;14.33;14.33;;;;;29.62;36.98;101260.97;5028581;28;45350;-71
2022/06/18 07:58:20;;;;;;;;;18.00;15.67;;;;;29.65;36.57;101262.56;5037536;28;45415;-74
2022/06/18 08:00:46;;;;;;;;;15.00;15.00;;;;;29.71;37.20;101252.25;5037473;28;46297;-69
2022/06/18 08:03:14;;;;;;;;;13.33;12.33;;;;;29.80;37.20;101254.31;5037483;28;45767;-72
2022/06/18 08:05:40;;;;;;;;;15.25;14.00;;;;;29.95;36.61;101246.94;5036850;28;45453;-71
2022/06/18 08:08:06;;;;;;;;;14.33;12.67;;;;;30.02;36.72;101241.97;5037474;28;45710;-70
2022/06/18 08:10:34;;;;;;;;;17.33;17.33;;;;;30.18;36.12;101247.97;5037306;28;45979;-71
2022/06/18 08:13:00;;;;;;;;;18.00;18.00;;;;;30.20;36.23;101240.59;5036319;28;45303;-71
2022/06/18 08:15:26;;;;;;;;;20.00;18.67;;;;;30.27;35.25;101245.59;5037238;28;45476;-72
2022/06/18 08:17:52;;;;;;;;;13.00;13.00;;;;;30.32;35.77;101232.63;5037645;28;45429;-70
2022/06/18 08:20:17;;;;;;;;;22.00;19.67;;;;;30.25;35.76;101213.25;5037166;28;46191;-71
2022/06/18 08:22:47;;;;;;;;;19.00;18.00;;;;;30.42;35.16;101223.72;5037554;28;45327;-71
2022/06/18 08:25:16;;;;;;;;;18.67;17.00;;;;;30.47;35.41;101222.50;5037200;28;45278;-73
2022/06/18 08:27:43;;;;;;;;;17.67;16.33;;;;;30.50;35.35;101223.16;5036271;28;45561;-73
2022/06/18 08:30:10;;;;;;;;;16.00;16.00;;;;;30.50;35.44;101198.84;5036958;28;45456;-73
2022/06/18 08:32:37;;;;;;;;;19.67;16.67;;;;;30.70;35.18;101223.50;5049459;27;45450;-72
2022/06/18 08:35:02;;;;;;;;;14.25;14.25;;;;;30.69;35.42;101201.00;5029052;28;45283;-73
2022/06/18 08:37:29;;;;;;;;;16.25;16.00;;;;;30.85;34.50;101214.28;5036586;28;45274;-73
2022/06/18 08:39:57;;;;;;;;;17.33;16.67;;;;;30.91;34.70;101219.19;5037271;28;45517;-72
2022/06/18 08:42:41;;;;;;;;;18.75;16.00;;;;;31.05;34.60;101212.75;5037651;28;45369;-73
2022/06/18 08:45:19;;;;;;;;;15.25;15.00;;;;;31.12;35.13;101200.47;5037901;28;45378;-73
2022/06/18 08:47:56;;;;;;;;;19.00;17.00;;;;;31.21;34.41;101202.47;5037643;28;45431;-73
2022/06/18 08:51:00;;;;;;;;;20.67;17.67;;;;;31.27;34.94;101203.81;5037394;28;45438;-72
2022/06/18 08:53:34;;;;;;;;;19.67;17.67;;;;;31.37;34.16;101198.53;5032280;28;45602;-75
2022/06/18 08:56:10;;;;;;;;;19.00;18.00;;;;;31.41;34.10;101194.66;5029719;28;45446;-76
2022/06/18 08:59:10;;;;;;;;;17.33;17.33;;;;;31.43;34.61;101195.41;5037739;28;45491;-70
2022/06/18 09:01:42;;;;;;;;;17.67;17.67;;;;;31.51;34.10;101176.69;5037439;28;46231;-70
2022/06/18 09:04:40;;;;;;;;;19.00;16.50;;;;;31.58;33.86;101174.34;5037560;28;45340;-70
2022/06/18 09:07:06;;;;;;;;;20.50;18.50;;;;;31.61;34.68;101180.41;5025680;28;45389;-72
2022/06/18 09:09:51;;;;;;;;;18.75;17.75;;;;;31.62;34.38;101165.00;5023152;28;45561;-71
2022/06/18 09:12:37;;;;;;;;;18.00;18.00;;;;;31.68;34.25;101175.38;5036927;28;45509;-69
2022/06/18 09:15:21;;;;;;;;;17.50;17.50;;;;;31.77;33.95;101171.03;5036797;28;45376;-71
2022/06/18 09:18:15;;;;;;;;;15.75;15.75;;;;;31.88;34.17;101176.44;5036997;28;45484;-70
2022/06/18 09:20:43;;;;;;;;;17.25;17.25;;;;;31.96;33.52;101168.56;5035694;27;45500;-70
2022/06/18 09:23:30;;;;;;;;;18.25;18.00;;;;;31.90;33.57;101150.97;5022756;28;46022;-70
2022/06/18 09:25:59;;;;;;;;;21.00;19.00;;;;;32.09;33.26;101169.31;5033348;28;45440;-71
2022/06/18 09:28:35;;;;;;;;;16.50;16.50;;;;;32.19;33.09;101155.00;5039081;28;45574;-71
2022/06/18 09:31:19;;;;;;;;;20.50;20.50;;;;;32.15;32.67;101131.84;5041298;28;45211;-72
2022/06/18 09:33:58;;;;;;;;;21.50;19.50;;;;;32.09;32.77;101115.13;5037726;28;45470;-74
2022/06/18 09:36:33;;;;;;;;;20.00;17.75;;;;;32.30;33.23;101150.41;5041259;28;45693;-72
2022/06/18 09:39:11;;;;;;;;;19.00;18.50;;;;;32.35;32.22;101139.19;5043792;28;45437;-74
2022/06/18 09:42:01;;;;;;;;;17.75;17.75;;;;;32.06;32.07;101077.44;5037137;28;45440;-72
2022/06/18 09:44:41;;;;;;;;;19.25;19.00;;;;;32.53;32.15;101142.22;5035864;28;45464;-70
2022/06/18 09:47:13;;;;;;;;;39.00;33.33;;;;;32.65;31.63;101130.34;5023271;28;45495;-69
2022/06/18 09:49:40;;;;;;;;;32.00;31.00;;;;;32.66;31.73;101129.34;5036570;28;45385;-69
2022/06/18 09:52:15;;;;;;;;;19.00;18.50;;;;;32.70;30.34;101121.84;5036356;28;45449;-70
2022/06/18 09:54:55;;;;;;;;;19.00;18.00;;;;;32.78;29.69;101122.00;5022091;28;45547;-70
2022/06/18 09:57:26;;;;;;;;;16.75;15.25;;;;;32.74;29.68;101107.00;5035921;28;45390;-70
2022/06/18 10:00:06;;;;;;;;;15.00;15.00;;;;;32.81;28.78;101105.47;5035907;28;45380;-71
2022/06/18 10:02:37;;;;;;;;;17.50;15.00;;;;;32.93;28.25;101107.13;5036234;28;45535;-70
2022/06/18 10:07:53;;;;;;;;;15.00;14.50;;;;;32.96;27.44;101092.44;5036198;28;45625;-71
2022/06/18 10:10:22;;;;;;;;;16.75;16.75;;;;;33.06;27.87;101101.53;5035993;28;45323;-71
2022/06/18 10:12:55;;;;;;;;;13.75;12.75;;;;;33.06;27.33;101087.97;5036566;28;45457;-70
2022/06/18 10:15:23;;;;;;;;;12.25;12.25;;;;;33.21;27.52;101099.31;5034568;28;46397;-70
2022/06/18 10:18:07;;;;;;;;;13.00;13.00;;;;;33.31;27.56;101085.78;5035809;28;45398;-71
2022/06/18 10:20:52;;;;;;;;;15.25;15.25;;;;;33.31;25.73;101092.06;5035809;28;45563;-70
2022/06/18 10:23:30;;;;;;;;;14.50;14.50;;;;;33.30;24.89;101081.38;5036182;28;45461;-70
2022/06/18 10:26:08;;;;;;;;;17.75;14.00;;;;;33.33;24.90;101076.50;5035526;28;45556;-71
2022/06/18 10:28:40;;;;;;;;;14.75;13.25;;;;;33.41;25.24;101075.84;5035871;28;45333;-72
2022/06/18 10:31:29;;;;;;;;;14.00;13.00;;;;;33.46;25.75;101069.97;5035980;28;45570;-71
2022/06/18 10:34:28;;;;;;;;;16.25;15.25;;;;;33.52;25.83;101072.16;5035185;28;45474;-71
2022/06/18 10:37:19;;;;;;;;;12.75;12.00;;;;;33.45;25.71;101063.69;5037524;28;46525;-72
2022/06/18 10:40:09;;;;;;;;;16.00;14.25;;;;;33.56;25.96;101073.59;5037764;27;45353;-74
2022/06/18 10:42:55;;;;;;;;;15.00;15.00;;;;;33.67;26.17;101076.25;5039035;28;45280;-72
2022/06/18 10:45:38;;;;;;;;;15.50;13.25;;;;;33.79;25.93;101058.81;5037639;28;45590;-72
2022/06/18 10:48:12;;;;;;;;;16.50;15.25;;;;;33.82;25.80;101037.81;5038880;28;46212;-72
2022/06/18 10:50:49;;;;;;;;;15.25;13.25;;;;;33.79;25.40;101039.81;5037332;27;45353;-70
2022/06/18 10:53:18;;;;;;;;;16.00;15.50;;;;;33.91;26.02;101045.97;5035848;28;45394;-72
2022/06/18 10:56:04;;;;;;;;;17.50;17.50;;;;;33.99;25.91;101045.25;5029444;28;45369;-71
2022/06/18 10:58:30;;;;;;;;;14.25;14.25;;;;;34.04;24.99;101026.66;5038320;28;45414;-73
2022/06/18 11:01:03;;;;;;;;;15.00;15.00;;;;;34.15;24.54;101028.44;5037305;28;45452;-71
2022/06/18 11:03:31;;;;;;;;;13.50;13.50;;;;;34.20;24.42;101021.56;5038679;28;45496;-70
2022/06/18 11:05:58;;;;;;;;;14.50;12.50;;;;;34.29;25.01;101022.56;5039226;28;45460;-72
2022/06/18 11:08:33;;;;;;;;;15.25;14.25;;;;;34.40;24.74;101013.38;5038157;28;45557;-76
2022/06/18 11:11:08;;;;;;;;;15.50;14.00;;;;;34.47;24.89;101005.50;5038341;28;45432;-72
2022/06/18 11:13:40;;;;;;;;;15.25;14.50;;;;;34.61;25.08;101010.50;5038681;28;45500;-71
2022/06/18 11:16:26;;;;;;;;;17.75;14.00;;;;;34.67;25.26;101003.59;5038892;28;45346;-75
2022/06/18 11:18:57;;;;;;;;;14.25;14.25;;;;;34.69;24.43;101007.03;5037356;27;46405;-76
2022/06/18 11:21:40;;;;;;;;;14.00;14.00;;;;;34.65;24.24;101006.50;5038433;28;45397;-77
2022/06/18 11:24:18;;;;;;;;;15.50;14.25;;;;;34.66;23.57;101001.91;5037108;28;45472;-75
2022/06/18 11:26:49;;;;;;;;;10.75;10.75;;;;;34.76;24.72;100997.28;5038851;28;45524;-77
2022/06/18 11:29:26;;;;;;;;;13.00;13.00;;;;;34.86;24.51;100987.25;5038923;28;46485;-76
2022/06/18 11:31:55;;;;;;;;;12.60;12.60;;;;;34.97;23.98;100987.03;5038152;28;45321;-71
2022/06/18 11:34:35;;;;;;;;;15.00;15.00;;;;;34.99;24.04;100989.63;5038250;28;45555;-74
2022/06/18 11:37:17;;;;;;;;;13.50;13.25;;;;;34.92;23.96;100970.31;5038392;28;45305;-73
2022/06/18 11:39:42;;;;;;;;;13.25;12.75;;;;;35.03;24.36;100966.53;5037989;28;46023;-72
2022/06/18 11:42:13;;;;;;;;;10.50;10.25;;;;;35.21;24.03;100967.47;5038339;28;45515;-74